sensor_id;sensor_type;location;lat;lon;timestamp;pressure;altitude;pressure_sealevel;temperature;humidity
5138;BME280;53959;53.626;11.410;2023-06-14T00:00:36;101320.78;;;14.92;72.07
5138;BME280;53959;53.626;11.410;2023-06-14T00:03:04;101318.00;;;14.95;72.44
5138;BME280;53959;53.626;11.410;2023-06-14T00:05:29;101312.72;;;14.93;72.35
5138;BME280;53959;53.626;11.410;2023-06-14T00:07:57;101311.88;;;14.91;72.04
5138;BME280;53959;53.626;11.410;2023-06-14T00:10:25;101313.97;;;14.81;72.72
5138;BME280;53959;53.626;11.410;2023-06-14T00:12:56;101311.16;;;14.86;72.97
5138;BME280;53959;53.626;11.410;2023-06-14T00:15:21;101304.44;;;14.74;73.16
5138;BME280;53959;53.626;11.410;2023-06-14T00:17:46;101314.28;;;14.72;73.04
5138;BME280;53959;53.626;11.410;2023-06-14T00:20:12;101310.94;;;14.66;73.30
5138;BME280;53959;53.626;11.410;2023-06-14T00:22:37;101322.50;;;14.66;73.22
5138;BME280;53959;53.626;11.410;2023-06-14T00:25:04;101313.56;;;14.67;73.43
5138;BME280;53959;53.626;11.410;2023-06-14T00:27:30;101313.81;;;14.60;73.83
5138;BME280;53959;53.626;11.410;2023-06-14T00:29:55;101324.28;;;14.67;73.83
5138;BME280;53959;53.626;11.410;2023-06-14T00:32:25;101321.47;;;14.70;73.98
5138;BME280;53959;53.626;11.410;2023-06-14T00:34:51;101333.88;;;14.73;73.98
5138;BME280;53959;53.626;11.410;2023-06-14T00:37:16;101327.75;;;14.69;74.09
5138;BME280;53959;53.626;11.410;2023-06-14T00:39:42;101330.09;;;14.80;73.98
5138;BME280;53959;53.626;11.410;2023-06-14T00:42:07;101340.84;;;14.78;74.29
5138;BME280;53959;53.626;11.410;2023-06-14T00:44:33;101332.16;;;14.70;74.69
5138;BME280;53959;53.626;11.410;2023-06-14T00:46:58;101331.19;;;14.73;74.78
5138;BME280;53959;53.626;11.410;2023-06-14T00:49:24;101331.28;;;14.70;74.38
5138;BME280;53959;53.626;11.410;2023-06-14T00:51:49;101334.84;;;14.70;74.36
5138;BME280;53959;53.626;11.410;2023-06-14T00:54:15;101333.50;;;14.57;74.80
5138;BME280;53959;53.626;11.410;2023-06-14T00:56:43;101337.03;;;14.57;74.57
5138;BME280;53959;53.626;11.410;2023-06-14T00:59:11;101338.13;;;14.52;74.58
5138;BME280;53959;53.626;11.410;2023-06-14T01:01:36;101341.75;;;14.48;75.03
5138;BME280;53959;53.626;11.410;2023-06-14T01:04:02;101340.09;;;14.44;74.85
5138;BME280;53959;53.626;11.410;2023-06-14T01:06:54;101340.94;;;14.46;74.90
5138;BME280;53959;53.626;11.410;2023-06-14T01:15:01;101334.19;;;14.34;75.53
5138;BME280;53959;53.626;11.410;2023-06-14T01:17:27;101349.13;;;14.41;75.07
5138;BME280;53959;53.626;11.410;2023-06-14T01:19:58;101344.63;;;14.42;75.49
5138;BME280;53959;53.626;11.410;2023-06-14T01:22:28;101342.16;;;14.36;75.79
5138;BME280;53959;53.626;11.410;2023-06-14T01:24:54;101352.44;;;14.48;75.89
5138;BME280;53959;53.626;11.410;2023-06-14T01:27:24;101351.09;;;14.34;75.82
5138;BME280;53959;53.626;11.410;2023-06-14T01:29:54;101359.91;;;14.37;75.87
5138;BME280;53959;53.626;11.410;2023-06-14T01:32:24;101359.28;;;14.28;76.24
5138;BME280;53959;53.626;11.410;2023-06-14T01:34:50;101362.03;;;14.25;76.44
5138;BME280;53959;53.626;11.410;2023-06-14T01:37:16;101355.81;;;14.25;76.52
5138;BME280;53959;53.626;11.410;2023-06-14T01:39:43;101354.38;;;14.15;76.76
5138;BME280;53959;53.626;11.410;2023-06-14T01:42:10;101360.38;;;14.21;76.41
5138;BME280;53959;53.626;11.410;2023-06-14T01:44:41;101356.13;;;14.16;76.51
5138;BME280;53959;53.626;11.410;2023-06-14T01:47:08;101354.69;;;14.04;76.84
5138;BME280;53959;53.626;11.410;2023-06-14T01:49:34;101349.97;;;14.12;76.85
5138;BME280;53959;53.626;11.410;2023-06-14T01:52:00;101358.13;;;14.07;76.92
5138;BME280;53959;53.626;11.410;2023-06-14T01:54:26;101352.88;;;14.04;77.09
5138;BME280;53959;53.626;11.410;2023-06-14T01:56:51;101365.09;;;14.13;76.91
5138;BME280;53959;53.626;11.410;2023-06-14T01:59:17;101365.94;;;14.14;76.41
5138;BME280;53959;53.626;11.410;2023-06-14T02:01:42;101362.50;;;14.10;77.00
5138;BME280;53959;53.626;11.410;2023-06-14T02:04:08;101358.72;;;14.17;76.75
5138;BME280;53959;53.626;11.410;2023-06-14T02:06:33;101358.28;;;14.03;77.27
5138;BME280;53959;53.626;11.410;2023-06-14T02:09:00;101357.44;;;14.01;77.60
5138;BME280;53959;53.626;11.410;2023-06-14T02:11:27;101362.63;;;14.07;77.08
5138;BME280;53959;53.626;11.410;2023-06-14T02:13:53;101362.72;;;14.02;76.92
5138;BME280;53959;53.626;11.410;2023-06-14T02:16:18;101364.59;;;13.99;77.12
5138;BME280;53959;53.626;11.410;2023-06-14T02:18:44;101376.34;;;13.93;77.48
5138;BME280;53959;53.626;11.410;2023-06-14T02:21:09;101372.88;;;13.90;77.37
5138;BME280;53959;53.626;11.410;2023-06-14T02:23:34;101370.88;;;13.98;77.35
5138;BME280;53959;53.626;11.410;2023-06-14T02:26:00;101377.22;;;13.94;77.46
5138;BME280;53959;53.626;11.410;2023-06-14T02:28:25;101378.81;;;14.01;77.23
5138;BME280;53959;53.626;11.410;2023-06-14T02:30:51;101383.34;;;13.97;77.25
5138;BME280;53959;53.626;11.410;2023-06-14T02:33:16;101380.63;;;13.99;77.10
5138;BME280;53959;53.626;11.410;2023-06-14T02:35:42;101380.41;;;14.06;76.70
5138;BME280;53959;53.626;11.410;2023-06-14T02:38:08;101380.47;;;14.05;76.96
5138;BME280;53959;53.626;11.410;2023-06-14T02:40:33;101383.34;;;13.97;77.04
5138;BME280;53959;53.626;11.410;2023-06-14T02:42:58;101382.41;;;14.00;76.78
5138;BME280;53959;53.626;11.410;2023-06-14T02:45:24;101373.47;;;14.01;76.82
5138;BME280;53959;53.626;11.410;2023-06-14T02:47:50;101373.47;;;14.01;77.06
5138;BME280;53959;53.626;11.410;2023-06-14T02:50:16;101370.13;;;13.93;77.15
5138;BME280;53959;53.626;11.410;2023-06-14T02:52:43;101376.28;;;13.95;76.76
5138;BME280;53959;53.626;11.410;2023-06-14T02:55:09;101377.31;;;13.91;76.79
5138;BME280;53959;53.626;11.410;2023-06-14T02:57:35;101383.28;;;13.99;76.63
5138;BME280;53959;53.626;11.410;2023-06-14T03:00:01;101382.34;;;14.01;76.35
5138;BME280;53959;53.626;11.410;2023-06-14T03:02:26;101379.81;;;13.97;76.79
5138;BME280;53959;53.626;11.410;2023-06-14T03:04:52;101378.22;;;13.90;77.07
5138;BME280;53959;53.626;11.410;2023-06-14T03:07:19;101380.75;;;13.96;77.30
5138;BME280;53959;53.626;11.410;2023-06-14T03:09:45;101377.34;;;13.89;77.15
5138;BME280;53959;53.626;11.410;2023-06-14T03:12:12;101378.44;;;13.82;77.50
5138;BME280;53959;53.626;11.410;2023-06-14T03:14:38;101383.72;;;13.83;77.80
5138;BME280;53959;53.626;11.410;2023-06-14T03:17:05;101376.50;;;13.89;77.36
5138;BME280;53959;53.626;11.410;2023-06-14T03:19:32;101389.91;;;13.85;77.62
5138;BME280;53959;53.626;11.410;2023-06-14T03:21:58;101383.94;;;13.76;77.46
5138;BME280;53959;53.626;11.410;2023-06-14T03:24:25;101389.75;;;13.92;77.72
5138;BME280;53959;53.626;11.410;2023-06-14T03:26:56;101391.75;;;13.83;77.40
5138;BME280;53959;53.626;11.410;2023-06-14T03:29:22;101397.88;;;13.87;77.69
5138;BME280;53959;53.626;11.410;2023-06-14T03:31:59;101399.59;;;13.90;77.74
5138;BME280;53959;53.626;11.410;2023-06-14T03:34:27;101401.34;;;13.91;77.81
5138;BME280;53959;53.626;11.410;2023-06-14T03:36:53;101401.41;;;13.88;77.88
5138;BME280;53959;53.626;11.410;2023-06-14T03:39:19;101410.34;;;13.88;77.77
5138;BME280;53959;53.626;11.410;2023-06-14T03:41:45;101406.03;;;13.82;77.96
5138;BME280;53959;53.626;11.410;2023-06-14T03:44:15;101403.41;;;13.81;77.82
5138;BME280;53959;53.626;11.410;2023-06-14T03:46:41;101402.53;;;13.80;77.89
5138;BME280;53959;53.626;11.410;2023-06-14T03:49:07;101401.69;;;13.78;77.83
5138;BME280;53959;53.626;11.410;2023-06-14T03:51:32;101409.84;;;13.72;77.70
5138;BME280;53959;53.626;11.410;2023-06-14T03:54:01;101411.50;;;13.76;77.74
5138;BME280;53959;53.626;11.410;2023-06-14T03:56:26;101408.75;;;13.79;77.33
5138;BME280;53959;53.626;11.410;2023-06-14T03:58:52;101415.63;;;13.90;77.35
5138;BME280;53959;53.626;11.410;2023-06-14T04:01:20;101412.06;;;13.89;76.96
5138;BME280;53959;53.626;11.410;2023-06-14T04:03:46;101408.09;;;14.04;76.69
5138;BME280;53959;53.626;11.410;2023-06-14T04:06:11;101420.59;;;14.02;76.05
5138;BME280;53959;53.626;11.410;2023-06-14T04:08:37;101421.63;;;13.98;76.33
5138;BME280;53959;53.626;11.410;2023-06-14T04:11:04;101418.81;;;14.02;76.33
5138;BME280;53959;53.626;11.410;2023-06-14T04:13:30;101421.25;;;14.10;75.96
5138;BME280;53959;53.626;11.410;2023-06-14T04:15:56;101420.44;;;14.08;75.96
5138;BME280;53959;53.626;11.410;2023-06-14T04:18:26;101419.34;;;14.15;75.70
5138;BME280;53959;53.626;11.410;2023-06-14T04:20:51;101422.19;;;14.09;75.99
5138;BME280;53959;53.626;11.410;2023-06-14T04:23:18;101423.41;;;14.28;76.01
5138;BME280;53959;53.626;11.410;2023-06-14T04:25:44;101431.50;;;14.25;75.59
5138;BME280;53959;53.626;11.410;2023-06-14T04:28:11;101433.19;;;14.29;75.46
5138;BME280;53959;53.626;11.410;2023-06-14T04:30:37;101433.53;;;14.48;75.56
5138;BME280;53959;53.626;11.410;2023-06-14T04:33:07;101435.25;;;14.51;75.04
5138;BME280;53959;53.626;11.410;2023-06-14T04:35:33;101448.38;;;14.60;75.17
5138;BME280;53959;53.626;11.410;2023-06-14T04:38:01;101445.59;;;14.63;74.68
5138;BME280;53959;53.626;11.410;2023-06-14T04:40:27;101446.59;;;14.59;74.24
5138;BME280;53959;53.626;11.410;2023-06-14T04:42:52;101440.81;;;14.74;73.72
5138;BME280;53959;53.626;11.410;2023-06-14T04:45:19;101446.78;;;14.53;74.39
5138;BME280;53959;53.626;11.410;2023-06-14T04:47:45;101453.78;;;14.57;74.58
5138;BME280;53959;53.626;11.410;2023-06-14T04:50:11;101450.97;;;14.62;74.80
5138;BME280;53959;53.626;11.410;2023-06-14T04:52:39;101449.88;;;14.69;74.32
5138;BME280;53959;53.626;11.410;2023-06-14T04:55:05;101453.16;;;14.78;73.87
5138;BME280;53959;53.626;11.410;2023-06-14T04:57:32;101449.25;;;14.89;74.05
5138;BME280;53959;53.626;11.410;2023-06-14T04:59:58;101451.94;;;14.89;73.79
5138;BME280;53959;53.626;11.410;2023-06-14T05:02:26;101449.16;;;14.92;72.89
5138;BME280;53959;53.626;11.410;2023-06-14T05:04:53;101454.34;;;14.98;73.01
5138;BME280;53959;53.626;11.410;2023-06-14T05:07:20;101454.25;;;15.01;73.43
5138;BME280;53959;53.626;11.410;2023-06-14T05:09:47;101461.91;;;15.12;72.41
5138;BME280;53959;53.626;11.410;2023-06-14T05:12:13;101463.69;;;15.11;72.18
5138;BME280;53959;53.626;11.410;2023-06-14T05:14:38;101459.75;;;15.23;71.79
5138;BME280;53959;53.626;11.410;2023-06-14T05:17:05;101456.72;;;15.34;71.86
5138;BME280;53959;53.626;11.410;2023-06-14T05:19:31;101459.06;;;15.44;71.26
5138;BME280;53959;53.626;11.410;2023-06-14T05:21:56;101472.06;;;15.28;71.58
5138;BME280;53959;53.626;11.410;2023-06-14T05:24:21;101457.56;;;15.36;70.59
5138;BME280;53959;53.626;11.410;2023-06-14T05:26:47;101464.25;;;15.49;70.24
5138;BME280;53959;53.626;11.410;2023-06-14T05:29:12;101469.09;;;15.64;69.62
5138;BME280;53959;53.626;11.410;2023-06-14T05:31:38;101467.59;;;15.84;69.01
5138;BME280;53959;53.626;11.410;2023-06-14T05:34:03;101473.56;;;15.65;69.51
5138;BME280;53959;53.626;11.410;2023-06-14T05:36:29;101462.75;;;15.68;69.39
5138;BME280;53959;53.626;11.410;2023-06-14T05:38:55;101473.50;;;15.67;68.63
5138;BME280;53959;53.626;11.410;2023-06-14T05:41:28;101474.25;;;15.97;68.36
5138;BME280;53959;53.626;11.410;2023-06-14T05:43:54;101464.56;;;15.93;68.10
5138;BME280;53959;53.626;11.410;2023-06-14T05:46:20;101476.22;;;15.92;68.59
5138;BME280;53959;53.626;11.410;2023-06-14T05:48:48;101467.03;;;15.99;68.52
5138;BME280;53959;53.626;11.410;2023-06-14T05:51:13;101469.75;;;16.22;67.88
5138;BME280;53959;53.626;11.410;2023-06-14T05:53:39;101469.47;;;16.30;67.12
5138;BME280;53959;53.626;11.410;2023-06-14T05:56:05;101469.19;;;16.38;66.70
5138;BME280;53959;53.626;11.410;2023-06-14T05:58:30;101473.88;;;16.56;66.76
5138;BME280;53959;53.626;11.410;2023-06-14T06:00:56;101476.06;;;16.68;66.52
5138;BME280;53959;53.626;11.410;2023-06-14T06:03:23;101480.19;;;16.79;65.77
5138;BME280;53959;53.626;11.410;2023-06-14T06:05:48;101476.91;;;16.70;65.66
5138;BME280;53959;53.626;11.410;2023-06-14T06:08:13;101477.44;;;16.80;65.83
5138;BME280;53959;53.626;11.410;2023-06-14T06:10:39;101479.41;;;16.98;64.95
5138;BME280;53959;53.626;11.410;2023-06-14T06:13:04;101477.81;;;17.16;64.42
5138;BME280;53959;53.626;11.410;2023-06-14T06:15:30;101489.66;;;17.11;64.30
5138;BME280;53959;53.626;11.410;2023-06-14T06:17:55;101482.91;;;17.22;64.55
5138;BME280;53959;53.626;11.410;2023-06-14T06:20:21;101483.50;;;17.31;64.32
5138;BME280;53959;53.626;11.410;2023-06-14T06:22:52;101484.19;;;17.36;62.67
5138;BME280;53959;53.626;11.410;2023-06-14T06:25:18;101480.41;;;17.62;61.60
5138;BME280;53959;53.626;11.410;2023-06-14T06:27:43;101478.38;;;17.67;60.61
5138;BME280;53959;53.626;11.410;2023-06-14T06:30:09;101493.22;;;17.55;60.41
5138;BME280;53959;53.626;11.410;2023-06-14T06:32:35;101485.47;;;17.69;59.52
5138;BME280;53959;53.626;11.410;2023-06-14T06:35:01;101489.47;;;17.81;60.15
5138;BME280;53959;53.626;11.410;2023-06-14T06:37:26;101489.66;;;17.97;59.93
5138;BME280;53959;53.626;11.410;2023-06-14T06:39:51;101495.53;;;18.07;59.82
5138;BME280;53959;53.626;11.410;2023-06-14T06:42:17;101500.28;;;18.00;59.98
5138;BME280;53959;53.626;11.410;2023-06-14T06:44:42;101498.00;;;18.11;59.74
5138;BME280;53959;53.626;11.410;2023-06-14T06:47:08;101490.47;;;18.19;59.45
5138;BME280;53959;53.626;11.410;2023-06-14T06:49:34;101498.41;;;18.43;58.75
5138;BME280;53959;53.626;11.410;2023-06-14T06:52:04;101498.63;;;18.78;57.71
5138;BME280;53959;53.626;11.410;2023-06-14T06:54:30;101492.56;;;18.73;57.10
5138;BME280;53959;53.626;11.410;2023-06-14T06:56:56;101496.72;;;18.99;56.83
5138;BME280;53959;53.626;11.410;2023-06-14T06:59:22;101496.06;;;19.12;55.65
5138;BME280;53959;53.626;11.410;2023-06-14T07:01:47;101500.13;;;19.02;55.77
5138;BME280;53959;53.626;11.410;2023-06-14T07:04:13;101503.41;;;19.28;55.24
5138;BME280;53959;53.626;11.410;2023-06-14T07:06:38;101495.38;;;19.45;54.77
5138;BME280;53959;53.626;11.410;2023-06-14T07:09:04;101498.59;;;19.71;54.79
5138;BME280;53959;53.626;11.410;2023-06-14T07:11:33;101503.59;;;19.96;53.34
5138;BME280;53959;53.626;11.410;2023-06-14T07:13:58;101512.16;;;20.04;53.48
5138;BME280;53959;53.626;11.410;2023-06-14T07:16:24;101515.97;;;20.00;52.82
5138;BME280;53959;53.626;11.410;2023-06-14T07:18:49;101517.00;;;20.14;52.67
5138;BME280;53959;53.626;11.410;2023-06-14T07:21:14;101528.28;;;20.05;53.11
5138;BME280;53959;53.626;11.410;2023-06-14T07:23:40;101526.13;;;20.29;52.14
5138;BME280;53959;53.626;11.410;2023-06-14T07:26:05;101523.28;;;20.50;51.61
5138;BME280;53959;53.626;11.410;2023-06-14T07:28:31;101523.31;;;20.66;51.83
5138;BME280;53959;53.626;11.410;2023-06-14T07:30:56;101521.34;;;20.85;51.06
5138;BME280;53959;53.626;11.410;2023-06-14T07:33:21;101511.31;;;20.71;50.74
5138;BME280;53959;53.626;11.410;2023-06-14T07:35:47;101518.81;;;20.82;50.93
5138;BME280;53959;53.626;11.410;2023-06-14T07:38:13;101511.00;;;21.25;50.14
5138;BME280;53959;53.626;11.410;2023-06-14T07:40:38;101515.91;;;21.34;49.42
5138;BME280;53959;53.626;11.410;2023-06-14T07:43:03;101513.28;;;21.48;48.76
5138;BME280;53959;53.626;11.410;2023-06-14T07:45:29;101514.06;;;21.19;49.17
5138;BME280;53959;53.626;11.410;2023-06-14T07:47:54;101521.69;;;21.74;48.27
5138;BME280;53959;53.626;11.410;2023-06-14T07:50:20;101503.78;;;21.57;48.34
5138;BME280;53959;53.626;11.410;2023-06-14T07:52:45;101513.03;;;21.83;47.54
5138;BME280;53959;53.626;11.410;2023-06-14T07:55:12;101508.31;;;21.56;47.97
5138;BME280;53959;53.626;11.410;2023-06-14T07:57:37;101508.56;;;21.68;47.92
5138;BME280;53959;53.626;11.410;2023-06-14T08:00:03;101503.25;;;21.50;47.74
5138;BME280;53959;53.626;11.410;2023-06-14T08:02:37;101507.97;;;22.37;46.13
5138;BME280;53959;53.626;11.410;2023-06-14T08:05:02;101509.47;;;22.13;45.26
5138;BME280;53959;53.626;11.410;2023-06-14T08:07:28;101503.56;;;22.50;44.87
5138;BME280;53959;53.626;11.410;2023-06-14T08:09:53;101502.19;;;22.43;43.95
5138;BME280;53959;53.626;11.410;2023-06-14T08:12:18;101504.53;;;22.49;43.54
5138;BME280;53959;53.626;11.410;2023-06-14T08:14:44;101506.44;;;22.47;42.39
5138;BME280;53959;53.626;11.410;2023-06-14T08:17:10;101501.88;;;22.34;42.01
5138;BME280;53959;53.626;11.410;2023-06-14T08:19:35;101505.31;;;22.94;40.98
5138;BME280;53959;53.626;11.410;2023-06-14T08:22:00;101512.06;;;23.43;40.24
5138;BME280;53959;53.626;11.410;2023-06-14T08:24:26;101514.28;;;22.66;43.01
5138;BME280;53959;53.626;11.410;2023-06-14T08:26:54;101513.47;;;23.36;41.21
5138;BME280;53959;53.626;11.410;2023-06-14T08:29:20;101516.22;;;23.75;39.00
5138;BME280;53959;53.626;11.410;2023-06-14T08:31:46;101521.53;;;25.06;36.65
5138;BME280;53959;53.626;11.410;2023-06-14T08:34:12;101520.78;;;26.24;34.92
5138;BME280;53959;53.626;11.410;2023-06-14T08:36:37;101521.38;;;26.52;32.30
5138;BME280;53959;53.626;11.410;2023-06-14T08:39:02;101521.03;;;25.86;33.17
5138;BME280;53959;53.626;11.410;2023-06-14T08:41:28;101521.06;;;26.44;33.57
5138;BME280;53959;53.626;11.410;2023-06-14T08:43:55;101521.94;;;26.33;32.51
5138;BME280;53959;53.626;11.410;2023-06-14T08:46:21;101511.97;;;27.23;31.33
5138;BME280;53959;53.626;11.410;2023-06-14T08:48:51;101513.03;;;27.75;30.34
5138;BME280;53959;53.626;11.410;2023-06-14T08:51:20;101515.84;;;25.46;33.50
5138;BME280;53959;53.626;11.410;2023-06-14T08:53:55;101523.94;;;28.70;29.57
5138;BME280;53959;53.626;11.410;2023-06-14T08:56:26;101512.41;;;27.83;29.69
5138;BME280;53959;53.626;11.410;2023-06-14T08:58:53;101517.13;;;26.48;31.54
5138;BME280;53959;53.626;11.410;2023-06-14T09:01:19;101512.41;;;27.40;30.28
5138;BME280;53959;53.626;11.410;2023-06-14T09:03:47;101518.31;;;28.41;29.20
5138;BME280;53959;53.626;11.410;2023-06-14T09:06:13;101521.47;;;29.48;28.09
5138;BME280;53959;53.626;11.410;2023-06-14T09:08:43;101508.03;;;27.48;29.97
5138;BME280;53959;53.626;11.410;2023-06-14T09:11:12;101512.47;;;26.83;30.98
5138;BME280;53959;53.626;11.410;2023-06-14T09:13:40;101508.09;;;24.79;34.13
5138;BME280;53959;53.626;11.410;2023-06-14T09:16:06;101514.16;;;24.19;35.23
5138;BME280;53959;53.626;11.410;2023-06-14T09:18:36;101517.66;;;26.98;31.05
5138;BME280;53959;53.626;11.410;2023-06-14T09:21:02;101515.88;;;28.27;29.49
5138;BME280;53959;53.626;11.410;2023-06-14T09:23:27;101512.75;;;27.57;29.58
5138;BME280;53959;53.626;11.410;2023-06-14T09:25:53;101507.81;;;28.67;28.66
5138;BME280;53959;53.626;11.410;2023-06-14T09:28:18;101510.44;;;27.08;30.65
5138;BME280;53959;53.626;11.410;2023-06-14T09:30:45;101508.84;;;28.45;28.80
5138;BME280;53959;53.626;11.410;2023-06-14T09:33:10;101504.75;;;27.98;29.20
5138;BME280;53959;53.626;11.410;2023-06-14T09:35:41;101513.09;;;26.76;30.77
5138;BME280;53959;53.626;11.410;2023-06-14T09:38:07;101512.84;;;28.41;28.95
5138;BME280;53959;53.626;11.410;2023-06-14T09:40:35;101509.81;;;28.23;29.26
5138;BME280;53959;53.626;11.410;2023-06-14T09:43:04;101508.59;;;27.74;29.94
5138;BME280;53959;53.626;11.410;2023-06-14T09:45:31;101506.00;;;26.96;31.33
5138;BME280;53959;53.626;11.410;2023-06-14T09:47:57;101503.38;;;27.28;30.57
5138;BME280;53959;53.626;11.410;2023-06-14T09:50:23;101498.34;;;27.12;30.94
5138;BME280;53959;53.626;11.410;2023-06-14T09:52:52;101495.22;;;29.16;28.65
5138;BME280;53959;53.626;11.410;2023-06-14T09:55:18;101501.38;;;29.68;28.11
5138;BME280;53959;53.626;11.410;2023-06-14T09:57:47;101499.94;;;26.58;31.67
5138;BME280;53959;53.626;11.410;2023-06-14T10:00:16;101500.31;;;26.99;30.93
5138;BME280;53959;53.626;11.410;2023-06-14T10:02:47;101491.66;;;26.71;30.66
5138;BME280;53959;53.626;11.410;2023-06-14T10:05:17;101492.88;;;24.38;32.90
5138;BME280;53959;53.626;11.410;2023-06-14T10:07:53;101499.75;;;25.19;32.47
5138;BME280;53959;53.626;11.410;2023-06-14T10:10:21;101493.88;;;27.11;30.26
5138;BME280;53959;53.626;11.410;2023-06-14T10:12:47;101493.88;;;25.73;31.47
5138;BME280;53959;53.626;11.410;2023-06-14T10:15:21;101492.50;;;23.92;33.86
5138;BME280;53959;53.626;11.410;2023-06-14T10:17:54;101491.06;;;23.73;34.68
5138;BME280;53959;53.626;11.410;2023-06-14T10:20:35;101486.56;;;25.50;32.06
5138;BME280;53959;53.626;11.410;2023-06-14T10:23:17;101485.50;;;24.40;33.43
5138;BME280;53959;53.626;11.410;2023-06-14T10:25:43;101488.00;;;24.43;33.31
5138;BME280;53959;53.626;11.410;2023-06-14T10:30:37;101481.97;;;24.89;32.86
5138;BME280;53959;53.626;11.410;2023-06-14T10:33:08;101484.03;;;25.11;32.49
5138;BME280;53959;53.626;11.410;2023-06-14T10:35:35;101483.81;;;23.99;33.73
5138;BME280;53959;53.626;11.410;2023-06-14T10:38:08;101477.84;;;23.55;35.15
5138;BME280;53959;53.626;11.410;2023-06-14T10:40:34;101477.75;;;23.56;35.49
5138;BME280;53959;53.626;11.410;2023-06-14T10:43:00;101470.78;;;25.55;32.68
5138;BME280;53959;53.626;11.410;2023-06-14T10:45:25;101466.88;;;26.74;31.08
5138;BME280;53959;53.626;11.410;2023-06-14T10:47:50;101477.72;;;27.08;30.32
5138;BME280;53959;53.626;11.410;2023-06-14T10:50:27;101472.41;;;28.14;28.38
5138;BME280;53959;53.626;11.410;2023-06-14T10:52:54;101475.94;;;28.77;28.51
5138;BME280;53959;53.626;11.410;2023-06-14T10:55:21;101464.53;;;28.21;29.12
5138;BME280;53959;53.626;11.410;2023-06-14T10:57:48;101471.59;;;28.23;29.34
5138;BME280;53959;53.626;11.410;2023-06-14T11:00:20;101467.69;;;29.18;28.32
5138;BME280;53959;53.626;11.410;2023-06-14T11:06:00;101470.31;;;27.21;30.05
5138;BME280;53959;53.626;11.410;2023-06-14T11:08:56;101467.78;;;26.06;31.80
5138;BME280;53959;53.626;11.410;2023-06-14T11:11:31;101466.94;;;25.09;33.34
5138;BME280;53959;53.626;11.410;2023-06-14T11:13:59;101457.34;;;26.57;31.41
5138;BME280;53959;53.626;11.410;2023-06-14T11:16:26;101450.16;;;26.90;30.79
5138;BME280;53959;53.626;11.410;2023-06-14T11:18:53;101453.59;;;26.81;30.41
5138;BME280;53959;53.626;11.410;2023-06-14T11:21:18;101454.13;;;27.73;29.69
5138;BME280;53959;53.626;11.410;2023-06-14T11:23:53;101452.88;;;27.77;29.70
5138;BME280;53959;53.626;11.410;2023-06-14T11:26:27;101448.06;;;25.91;31.79
5138;BME280;53959;53.626;11.410;2023-06-14T11:28:55;101444.91;;;24.39;34.50
5138;BME280;53959;53.626;11.410;2023-06-14T11:31:22;101442.28;;;24.12;35.24
5138;BME280;53959;53.626;11.410;2023-06-14T11:33:50;101442.50;;;24.09;35.12
5138;BME280;53959;53.626;11.410;2023-06-14T11:36:16;101437.59;;;24.14;35.41
5138;BME280;53959;53.626;11.410;2023-06-14T11:38:42;101434.25;;;23.97;35.48
5138;BME280;53959;53.626;11.410;2023-06-14T11:41:07;101438.91;;;24.08;35.04
5138;BME280;53959;53.626;11.410;2023-06-14T11:43:32;101423.50;;;24.47;33.95
5138;BME280;53959;53.626;11.410;2023-06-14T11:46:00;101433.94;;;24.40;34.40
5138;BME280;53959;53.626;11.410;2023-06-14T11:48:39;101425.28;;;25.57;33.06
5138;BME280;53959;53.626;11.410;2023-06-14T11:51:04;101424.19;;;25.59;33.24
5138;BME280;53959;53.626;11.410;2023-06-14T11:53:30;101429.88;;;26.49;31.90
5138;BME280;53959;53.626;11.410;2023-06-14T11:55:56;101418.31;;;24.81;33.08
5138;BME280;53959;53.626;11.410;2023-06-14T11:58:22;101421.44;;;24.51;33.45
5138;BME280;53959;53.626;11.410;2023-06-14T12:00:51;101421.88;;;24.19;33.24
5138;BME280;53959;53.626;11.410;2023-06-14T12:03:17;101425.00;;;24.26;33.34
5138;BME280;53959;53.626;11.410;2023-06-14T12:05:42;101425.91;;;24.39;33.31
5138;BME280;53959;53.626;11.410;2023-06-14T12:08:09;101411.22;;;25.28;32.40
5138;BME280;53959;53.626;11.410;2023-06-14T12:10:41;101420.81;;;25.08;31.43
5138;BME280;53959;53.626;11.410;2023-06-14T12:13:08;101412.31;;;25.60;30.56
5138;BME280;53959;53.626;11.410;2023-06-14T12:15:34;101412.41;;;26.63;29.62
5138;BME280;53959;53.626;11.410;2023-06-14T12:17:59;101406.13;;;27.06;29.22
5138;BME280;53959;53.626;11.410;2023-06-14T12:20:29;101411.88;;;27.56;28.80
5138;BME280;53959;53.626;11.410;2023-06-14T12:22:58;101404.56;;;26.81;28.99
5138;BME280;53959;53.626;11.410;2023-06-14T12:25:26;101399.53;;;26.54;30.09
5138;BME280;53959;53.626;11.410;2023-06-14T12:27:56;101397.00;;;25.24;30.62
5138;BME280;53959;53.626;11.410;2023-06-14T12:30:21;101406.16;;;24.86;30.95
5138;BME280;53959;53.626;11.410;2023-06-14T12:32:47;101398.78;;;24.76;31.44
5138;BME280;53959;53.626;11.410;2023-06-14T12:35:12;101396.75;;;25.27;30.54
5138;BME280;53959;53.626;11.410;2023-06-14T12:37:37;101388.06;;;25.81;29.71
5138;BME280;53959;53.626;11.410;2023-06-14T12:40:04;101393.81;;;26.23;29.00
5138;BME280;53959;53.626;11.410;2023-06-14T12:42:31;101396.78;;;26.54;27.89
5138;BME280;53959;53.626;11.410;2023-06-14T12:44:56;101395.94;;;27.72;26.88
5138;BME280;53959;53.626;11.410;2023-06-14T12:47:22;101391.25;;;28.56;26.13
5138;BME280;53959;53.626;11.410;2023-06-14T12:49:47;101391.94;;;26.80;28.14
5138;BME280;53959;53.626;11.410;2023-06-14T12:52:12;101389.72;;;26.62;28.99
5138;BME280;53959;53.626;11.410;2023-06-14T12:54:38;101383.19;;;25.74;29.32
5138;BME280;53959;53.626;11.410;2023-06-14T12:57:05;101387.78;;;25.38;30.06
5138;BME280;53959;53.626;11.410;2023-06-14T12:59:31;101383.88;;;24.81;31.24